createdAt,value
2022-08-02T00:02:28.742Z,1.00
2022-08-02T00:07:31.995Z,2.00
2022-08-02T00:12:35.585Z,1.00
2022-08-02T00:17:40.027Z,1.00
2022-08-02T00:22:42.830Z,0.50
2022-08-02T00:27:45.633Z,1.25
2022-08-02T00:32:50.015Z,1.25
2022-08-02T00:37:52.891Z,2.00
2022-08-02T00:43:04.207Z,2.00
2022-08-02T00:48:10.813Z,1.00
2022-08-02T00:53:14.085Z,2.00
2022-08-02T00:58:16.890Z,1.75
2022-08-02T01:03:21.025Z,1.50
2022-08-02T01:08:29.424Z,1.25
2022-08-02T01:13:34.525Z,1.25
2022-08-02T01:18:45.198Z,1.50
2022-08-02T01:24:01.217Z,1.00
2022-08-02T01:29:09.601Z,2.00
2022-08-02T01:34:21.802Z,3.50
2022-08-02T01:39:32.553Z,2.00
2022-08-02T01:44:39.071Z,1.75
2022-08-02T01:49:44.330Z,2.00
2022-08-02T01:54:50.430Z,2.00
2022-08-02T01:59:57.374Z,2.50
2022-08-02T02:05:02.972Z,2.00
2022-08-02T02:10:09.707Z,3.00
2022-08-02T02:15:14.562Z,2.00
2022-08-02T02:20:20.164Z,2.00
2022-08-02T02:25:29.344Z,2.50
2022-08-02T02:30:48.499Z,3.00
2022-08-02T02:35:53.754Z,2.00
2022-08-02T02:40:59.734Z,1.50
2022-08-02T02:46:05.734Z,2.00
2022-08-02T02:51:14.345Z,2.50
2022-08-02T02:56:18.312Z,3.00
2022-08-02T03:01:55.902Z,3.00
2022-08-02T03:06:53.833Z,3.75
2022-08-02T03:11:57.920Z,3.75
2022-08-02T03:17:02.134Z,1.50
2022-08-02T03:22:05.165Z,2.50
2022-08-02T03:27:08.055Z,2.25
2022-08-02T03:32:12.849Z,2.75
2022-08-02T03:37:16.937Z,2.50
2022-08-02T03:42:20.666Z,3.00
2022-08-02T03:47:25.787Z,3.00
2022-08-02T03:52:29.773Z,2.00
2022-08-02T03:57:32.624Z,2.50
2022-08-02T04:02:37.145Z,3.00
2022-08-02T04:08:33.893Z,3.00
2022-08-02T04:13:02.683Z,3.25
2022-08-02T04:18:07.435Z,2.50
2022-08-02T04:23:12.852Z,3.00
2022-08-02T04:28:18.576Z,3.00
2022-08-02T04:33:23.450Z,3.00
2022-08-02T04:38:26.561Z,2.50
2022-08-02T04:43:29.374Z,3.00
2022-08-02T04:48:33.768Z,3.50
2022-08-02T04:53:36.549Z,4.00
2022-08-02T04:58:40.702Z,3.00
2022-08-02T05:03:46.766Z,4.00
2022-08-02T05:08:52.667Z,3.00
2022-08-02T05:13:57.932Z,3.75
2022-08-02T05:19:03.970Z,3.00
2022-08-02T05:24:07.763Z,4.00
2022-08-02T05:29:10.644Z,2.50
2022-08-02T05:34:14.684Z,3.75
2022-08-02T05:39:18.887Z,3.00
2022-08-02T05:44:22.064Z,2.50
2022-08-02T05:49:26.238Z,3.00
2022-08-02T05:54:39.440Z,3.75
2022-08-02T05:59:57.177Z,3.00
2022-08-02T06:05:06.543Z,2.50
2022-08-02T06:10:13.239Z,3.25
2022-08-02T06:15:17.951Z,3.00
2022-08-02T06:20:22.132Z,2.50
2022-08-02T06:25:50.098Z,3.00
2022-08-02T06:30:48.465Z,2.25
2022-08-02T06:36:00.125Z,3.00
2022-08-02T06:41:07.804Z,3.00
2022-08-02T06:46:54.343Z,3.00
2022-08-02T06:51:36.225Z,1.75
2022-08-02T06:56:38.972Z,2.00
2022-08-02T07:01:43.107Z,2.50
2022-08-02T07:06:47.215Z,2.00
2022-08-02T07:11:50.227Z,3.25
2022-08-02T07:16:53.515Z,2.00
2022-08-02T07:22:00.564Z,2.00
2022-08-02T07:27:12.785Z,3.00
2022-08-02T07:32:16.691Z,2.25
2022-08-02T07:37:51.092Z,2.00
2022-08-02T07:42:44.815Z,2.75
2022-08-02T07:47:47.883Z,3.00
2022-08-02T07:52:57.852Z,3.00
2022-08-02T07:58:00.820Z,2.25
2022-08-02T08:03:03.657Z,3.00
2022-08-02T08:08:11.229Z,3.00
2022-08-02T08:13:18.337Z,2.75
2022-08-02T08:18:22.377Z,3.50
2022-08-02T08:23:26.536Z,3.00
2022-08-02T08:28:29.332Z,3.50
2022-08-02T08:33:32.234Z,4.00
2022-08-02T08:38:36.439Z,3.50
2022-08-02T08:43:39.370Z,4.00
2022-08-02T08:48:47.364Z,3.00
2022-08-02T08:53:55.468Z,3.00
2022-08-02T08:58:58.678Z,3.75
2022-08-02T09:04:01.720Z,4.00
2022-08-02T09:09:05.959Z,4.00
2022-08-02T09:14:08.713Z,4.75
2022-08-02T09:19:20.139Z,3.75
2022-08-02T09:24:25.204Z,4.00
2022-08-02T09:29:41.118Z,5.25
2022-08-02T09:34:57.860Z,4.00
2022-08-02T09:40:03.418Z,4.00
2022-08-02T09:45:07.198Z,4.50
2022-08-02T09:50:15.077Z,4.50
2022-08-02T09:55:19.562Z,5.75
2022-08-02T10:00:37.176Z,4.25
2022-08-02T10:06:01.207Z,4.00
2022-08-02T10:11:07.024Z,4.00
2022-08-02T10:16:10.631Z,5.50
2022-08-02T10:21:16.301Z,5.00
2022-08-02T10:26:21.911Z,4.25
2022-08-02T10:31:29.498Z,5.00
2022-08-02T10:36:34.745Z,5.00
2022-08-02T10:41:47.756Z,5.75
2022-08-02T10:46:50.970Z,4.00
2022-08-02T10:52:11.358Z,5.50
2022-08-02T10:57:22.025Z,5.75
2022-08-02T11:02:37.041Z,6.00
2022-08-02T11:07:42.182Z,5.75
2022-08-02T11:13:03.438Z,5.00
2022-08-02T11:18:06.381Z,5.75
2022-08-02T11:23:44.326Z,4.75
2022-08-02T11:28:51.457Z,5.00
2022-08-02T11:33:55.083Z,5.50
2022-08-02T11:39:10.432Z,5.00
2022-08-02T11:44:14.623Z,5.00
2022-08-02T11:49:19.389Z,4.50
2022-08-02T11:54:31.675Z,4.00
2022-08-02T11:59:38.717Z,5.00
2022-08-02T12:04:42.290Z,3.00
2022-08-02T12:09:46.909Z,4.50
2022-08-02T12:14:52.259Z,4.50
2022-08-02T12:19:55.034Z,4.00
2022-08-02T12:24:59.166Z,4.75
2022-08-02T12:30:07.995Z,4.25
2022-08-02T12:35:13.490Z,3.00
2022-08-02T12:40:25.771Z,4.00
2022-08-02T12:45:40.753Z,4.00
2022-08-02T12:50:45.136Z,3.00
2022-08-02T12:55:59.334Z,3.25
2022-08-02T13:01:06.728Z,3.00
2022-08-02T13:06:32.393Z,3.75
2022-08-02T13:11:32.152Z,3.00
2022-08-02T13:16:36.697Z,3.75
2022-08-02T13:21:41.354Z,3.75
2022-08-02T13:27:04.473Z,3.33
2022-08-02T13:32:12.408Z,3.00
2022-08-02T13:37:15.825Z,3.00
2022-08-02T13:42:18.715Z,3.25
2022-08-02T13:47:35.974Z,2.75
2022-08-02T13:52:39.530Z,3.00
2022-08-02T13:57:42.299Z,3.00
2022-08-02T14:02:46.713Z,3.50
2022-08-02T14:07:49.464Z,3.00
2022-08-02T14:12:56.499Z,2.50
2022-08-02T14:18:00.932Z,3.50
2022-08-02T14:23:03.794Z,3.00
2022-08-02T14:28:07.162Z,3.75
2022-08-02T14:33:11.572Z,2.50
2022-08-02T14:38:14.373Z,3.00
2022-08-02T14:43:37.519Z,2.75
2022-08-02T14:48:41.746Z,3.00
2022-08-02T14:53:49.177Z,2.00
2022-08-02T14:59:06.093Z,1.75
2022-08-02T15:04:10.352Z,3.00
2022-08-02T15:09:13.704Z,3.00
2022-08-02T15:14:20.286Z,3.00
2022-08-02T15:19:56.417Z,3.50
2022-08-02T15:24:53.666Z,2.50
2022-08-02T15:30:00.293Z,3.00
2022-08-02T15:35:05.662Z,3.00
2022-08-02T15:40:09.466Z,2.00
2022-08-02T15:45:14.752Z,2.75
2022-08-02T15:50:20.939Z,2.00
2022-08-02T15:55:23.818Z,3.25
2022-08-02T16:00:27.879Z,2.00
2022-08-02T16:05:32.512Z,2.00
2022-08-02T16:10:35.638Z,2.75
2022-08-02T16:15:38.597Z,3.00
2022-08-02T16:20:42.814Z,3.00
2022-08-02T16:25:45.601Z,2.75
2022-08-02T16:30:59.469Z,2.75
2022-08-02T16:36:14.952Z,1.25
2022-08-02T16:41:22.726Z,2.00
2022-08-02T16:46:25.819Z,2.00
2022-08-02T16:51:31.002Z,2.00
2022-08-02T16:56:33.883Z,2.25
2022-08-02T17:02:03.194Z,2.25
2022-08-02T17:07:00.892Z,2.00
2022-08-02T17:12:03.730Z,2.00
2022-08-02T17:17:06.624Z,2.00
2022-08-02T17:22:18.705Z,1.00
2022-08-02T17:27:21.486Z,2.00
2022-08-02T17:32:24.421Z,2.00
2022-08-02T17:37:34.101Z,2.00
2022-08-02T17:42:44.102Z,2.00
2022-08-02T17:48:04.449Z,2.00
2022-08-02T17:53:09.360Z,2.00
2022-08-02T17:58:12.679Z,2.00
2022-08-02T18:03:15.662Z,2.25
2022-08-02T18:08:23.230Z,1.25
2022-08-02T18:13:28.481Z,2.00
2022-08-02T18:18:36.061Z,3.00
2022-08-02T18:23:44.128Z,2.00
2022-08-02T18:28:51.569Z,2.00
2022-08-02T18:34:02.023Z,2.00
2022-08-02T18:39:08.071Z,2.00
2022-08-02T18:44:29.963Z,1.50
2022-08-02T18:49:46.885Z,1.50
2022-08-02T18:54:52.332Z,2.00
2022-08-02T18:59:55.076Z,2.50
2022-08-02T19:04:57.824Z,2.00
2022-08-02T19:10:01.927Z,3.00
2022-08-02T19:15:04.970Z,1.25
2022-08-02T19:20:09.208Z,2.00
2022-08-02T19:25:15.919Z,2.25
2022-08-02T19:30:20.331Z,2.00
2022-08-02T19:35:29.913Z,2.00
2022-08-02T19:40:36.177Z,2.50
2022-08-02T19:45:50.339Z,3.00
2022-08-02T19:50:56.461Z,2.50
2022-08-02T19:56:04.961Z,3.25
2022-08-02T20:01:09.525Z,2.25
2022-08-02T20:06:19.674Z,3.00
2022-08-02T20:11:34.976Z,3.50
2022-08-02T20:16:38.266Z,3.00
2022-08-02T20:21:50.515Z,4.50
2022-08-02T20:26:59.942Z,4.25
2022-08-02T20:32:03.248Z,4.00
2022-08-02T20:37:59.765Z,5.00
2022-08-02T20:42:30.616Z,7.00
2022-08-02T20:47:39.449Z,6.40
2022-08-02T20:52:42.898Z,6.00
2022-08-02T20:58:00.441Z,5.00
2022-08-02T21:03:05.645Z,5.60
2022-08-02T21:08:14.007Z,6.00
2022-08-02T21:13:22.937Z,6.60
2022-08-02T21:18:36.599Z,5.50
2022-08-02T21:29:09.131Z,7.00
2022-08-02T21:34:26.682Z,8.00
2022-08-02T21:39:30.766Z,8.00
2022-08-02T21:44:34.983Z,7.20
2022-08-02T21:50:09.812Z,8.00
2022-08-02T21:55:00.893Z,8.00
2022-08-02T22:00:10.665Z,6.60
2022-08-02T22:10:51.475Z,7.80
2022-08-02T22:15:57.548Z,8.20
2022-08-02T22:21:02.292Z,8.20
2022-08-02T22:26:19.122Z,9.00
2022-08-02T22:31:41.438Z,8.00
2022-08-02T22:36:45.478Z,8.60
2022-08-02T22:42:06.002Z,9.40
2022-08-02T22:47:14.739Z,8.20
2022-08-02T22:52:20.117Z,8.00
2022-08-02T22:57:31.068Z,7.80
2022-08-02T22:59:10.715Z,7.00
2022-08-02T22:59:11.397Z,6.60
2022-08-02T23:02:35.443Z,8.00
2022-08-02T23:07:41.120Z,7.40
2022-08-02T23:12:43.935Z,8.00
2022-08-02T23:18:05.790Z,7.00
2022-08-02T23:23:10.850Z,6.00
2022-08-02T23:28:14.632Z,6.00
2022-08-02T23:33:18.759Z,7.00
2022-08-02T23:38:21.507Z,6.25
2022-08-02T23:43:24.215Z,6.25
2022-08-02T23:48:28.485Z,5.75
2022-08-02T23:53:31.327Z,7.40
2022-08-02T23:58:34.137Z,7.00
